Time;durP1;ratioP1;P1;durP2;ratioP2;P2;SDS_P1;SDS_P2;PMS_P1;PMS_P2;Temp;Humidity;BMP_temperature;BMP_pressure;BME280_temperature;BME280_humidity;BME280_pressure;Samples;Min_cycle;Max_cycle;Signal;HPM_P1;HPM_P2
2023/08/09 00:01:21;;;;;;;3.10;0.50;;;;;;;;;;4995600;28;20427;-79
2023/08/09 00:03:48;;;;;;;3.80;0.40;;;;;;;;;;5008239;28;20438;-78
2023/08/09 00:06:14;;;;;;;3.93;0.50;;;;;;;;;;4997526;28;20266;-79
2023/08/09 00:08:40;;;;;;;5.33;0.60;;;;;;;;;;4997214;28;20451;-80
2023/08/09 00:11:06;;;;;;;4.10;0.30;;;;;;;;;;4997198;28;20620;-78
2023/08/09 00:13:32;;;;;;;2.30;0.40;;;;;;;;;;4997131;28;20410;-79
2023/08/09 00:15:58;;;;;;;2.30;0.40;;;;;;;;;;4996748;28;20973;-79
2023/08/09 00:18:24;;;;;;;5.30;0.60;;;;;;;;;;4996047;28;20424;-81
2023/08/09 00:20:50;;;;;;;3.17;0.40;;;;;;;;;;4995474;28;20188;-80
2023/08/09 00:23:16;;;;;;;4.50;0.47;;;;;;;;;;4996876;28;20181;-78
2023/08/09 00:25:43;;;;;;;3.23;0.53;;;;;;;;;;4996595;28;20214;-79
2023/08/09 00:28:09;;;;;;;1.50;0.27;;;;;;;;;;4996728;28;20177;-79
2023/08/09 00:30:34;;;;;;;2.07;0.50;;;;;;;;;;4996171;28;20423;-79
2023/08/09 00:33:00;;;;;;;3.73;0.63;;;;;;;;;;4996578;28;20411;-80
2023/08/09 00:35:27;;;;;;;4.90;0.30;;;;;;;;;;4995320;28;20221;-80
2023/08/09 00:37:52;;;;;;;1.43;0.30;;;;;;;;;;4996233;28;20652;-79
2023/08/09 00:40:18;;;;;;;2.17;0.40;;;;;;;;;;4996108;28;20478;-80
2023/08/09 00:42:44;;;;;;;3.87;0.40;;;;;;;;;;4996372;28;20177;-80
2023/08/09 00:45:10;;;;;;;2.97;0.80;;;;;;;;;;4996537;28;20277;-79
2023/08/09 00:47:37;;;;;;;2.87;0.60;;;;;;;;;;4994219;28;20443;-80
2023/08/09 00:50:04;;;;;;;6.70;0.40;;;;;;;;;;4996036;28;20436;-79
2023/08/09 00:52:30;;;;;;;5.33;0.40;;;;;;;;;;4996180;28;20415;-79
2023/08/09 00:54:57;;;;;;;5.20;0.40;;;;;;;;;;4996117;28;20438;-79
2023/08/09 00:57:23;;;;;;;3.77;0.27;;;;;;;;;;4996083;28;20420;-79
2023/08/09 00:59:49;;;;;;;3.30;0.30;;;;;;;;;;4994748;28;20436;-79
2023/08/09 01:02:15;;;;;;;6.47;0.67;;;;;;;;;;4996733;28;20427;-79
2023/08/09 01:04:41;;;;;;;5.00;0.30;;;;;;;;;;5004990;28;20412;-79
2023/08/09 01:07:13;;;;;;;3.77;0.50;;;;;;;;;;5002967;28;20421;-78
2023/08/09 01:09:48;;;;;;;1.43;0.20;;;;;;;;;;5004924;28;20418;-79
2023/08/09 01:12:23;;;;;;;5.50;0.70;;;;;;;;;;5004300;28;20418;-79
2023/08/09 01:14:51;;;;;;;6.03;0.63;;;;;;;;;;5004603;28;20464;-79
2023/08/09 01:17:18;;;;;;;3.37;0.30;;;;;;;;;;5003807;28;20482;-80
2023/08/09 01:19:53;;;;;;;1.07;0.20;;;;;;;;;;5005141;28;20525;-79
2023/08/09 01:22:30;;;;;;;7.60;0.70;;;;;;;;;;5003540;28;20837;-79
2023/08/09 01:25:02;;;;;;;7.10;0.93;;;;;;;;;;5007385;28;20420;-79
2023/08/09 01:27:28;;;;;;;4.40;0.87;;;;;;;;;;5006580;28;20407;-80
2023/08/09 01:29:54;;;;;;;2.73;0.20;;;;;;;;;;5003730;28;20412;-80
2023/08/09 01:32:20;;;;;;;6.07;0.40;;;;;;;;;;5005090;28;20434;-80
2023/08/09 01:34:46;;;;;;;4.37;0.53;;;;;;;;;;5008133;28;20942;-80
2023/08/09 01:37:18;;;;;;;5.60;0.43;;;;;;;;;;5003683;28;20952;-80
2023/08/09 01:39:46;;;;;;;4.10;0.37;;;;;;;;;;5004391;28;20420;-81
2023/08/09 01:42:13;;;;;;;2.77;0.40;;;;;;;;;;5003616;28;21564;-81
2023/08/09 01:44:39;;;;;;;2.80;0.97;;;;;;;;;;5003065;28;20427;-80
2023/08/09 01:47:05;;;;;;;2.97;0.60;;;;;;;;;;5009739;28;20435;-82
2023/08/09 01:49:32;;;;;;;4.30;0.40;;;;;;;;;;5003593;28;20419;-80
2023/08/09 01:51:58;;;;;;;6.20;0.50;;;;;;;;;;5005729;28;20963;-81
2023/08/09 01:54:24;;;;;;;2.80;0.20;;;;;;;;;;5004386;28;20410;-80
2023/08/09 01:56:50;;;;;;;4.07;0.63;;;;;;;;;;5004804;28;20568;-80
2023/08/09 01:59:16;;;;;;;3.20;0.30;;;;;;;;;;5004668;28;20410;-81
2023/08/09 02:01:43;;;;;;;1.33;0.20;;;;;;;;;;5003527;28;21450;-80
2023/08/09 02:04:10;;;;;;;3.60;0.43;;;;;;;;;;5006980;28;20417;-80
2023/08/09 02:06:38;;;;;;;4.00;0.30;;;;;;;;;;5003248;28;20428;-80
2023/08/09 02:09:06;;;;;;;7.10;0.87;;;;;;;;;;5004439;28;20446;-81
2023/08/09 02:11:32;;;;;;;3.57;0.43;;;;;;;;;;5005120;28;20486;-80
2023/08/09 02:13:58;;;;;;;2.80;0.43;;;;;;;;;;5006074;28;20455;-79
2023/08/09 02:16:23;;;;;;;5.57;0.50;;;;;;;;;;5013973;28;20576;-79
2023/08/09 02:18:49;;;;;;;4.80;0.50;;;;;;;;;;5015127;28;20459;-79
2023/08/09 02:21:15;;;;;;;4.37;0.60;;;;;;;;;;5014375;28;20174;-79
2023/08/09 02:23:41;;;;;;;2.63;0.70;;;;;;;;;;5014259;28;20442;-79
2023/08/09 02:26:08;;;;;;;3.67;0.47;;;;;;;;;;5014247;28;20409;-78
2023/08/09 02:28:34;;;;;;;3.03;0.60;;;;;;;;;;5014280;28;20186;-79
2023/08/09 02:31:00;;;;;;;6.30;0.97;;;;;;;;;;5013879;28;20891;-78
2023/08/09 02:33:26;;;;;;;3.67;1.53;;;;;;;;;;5014344;28;20798;-78
2023/08/09 02:35:57;;;;;;;3.40;1.33;;;;;;;;;;5014362;28;20463;-79
2023/08/09 02:38:24;;;;;;;1.93;0.60;;;;;;;;;;5014153;28;20425;-79
2023/08/09 02:40:50;;;;;;;4.53;1.00;;;;;;;;;;5013871;28;20798;-78
2023/08/09 02:43:17;;;;;;;4.50;0.83;;;;;;;;;;5014024;28;20489;-79
2023/08/09 02:45:43;;;;;;;9.97;1.53;;;;;;;;;;5013631;28;20408;-79
2023/08/09 02:48:09;;;;;;;5.00;1.20;;;;;;;;;;5014015;28;20920;-79
2023/08/09 02:50:36;;;;;;;4.90;0.87;;;;;;;;;;5013753;28;20417;-78
2023/08/09 02:53:03;;;;;;;3.63;1.07;;;;;;;;;;5013937;28;20795;-79
2023/08/09 02:55:29;;;;;;;6.10;0.77;;;;;;;;;;5013706;28;20579;-78
2023/08/09 02:57:55;;;;;;;4.00;0.60;;;;;;;;;;5013797;28;20465;-79
2023/08/09 03:00:21;;;;;;;4.77;0.83;;;;;;;;;;5013386;28;20820;-79
2023/08/09 03:02:46;;;;;;;5.97;0.70;;;;;;;;;;5013622;28;20175;-79
2023/08/09 03:05:12;;;;;;;2.80;0.37;;;;;;;;;;5013574;28;20545;-79
2023/08/09 03:07:39;;;;;;;9.70;2.37;;;;;;;;;;5013578;28;20176;-80
2023/08/09 03:10:05;;;;;;;6.63;1.03;;;;;;;;;;5012314;28;20573;-79
2023/08/09 03:12:31;;;;;;;4.50;0.67;;;;;;;;;;5013383;28;20736;-80
2023/08/09 03:14:57;;;;;;;2.57;1.10;;;;;;;;;;5013137;28;20418;-80
2023/08/09 03:17:23;;;;;;;5.73;1.03;;;;;;;;;;5012158;28;20967;-79
2023/08/09 03:19:49;;;;;;;3.87;0.80;;;;;;;;;;5013407;28;20230;-79
2023/08/09 03:22:15;;;;;;;2.23;0.50;;;;;;;;;;5013366;28;20431;-79
2023/08/09 03:24:41;;;;;;;5.23;0.70;;;;;;;;;;5013407;28;20509;-79
2023/08/09 03:27:07;;;;;;;6.07;1.80;;;;;;;;;;5013282;28;20501;-79
2023/08/09 03:29:33;;;;;;;5.57;0.77;;;;;;;;;;5012592;28;20180;-80
2023/08/09 03:31:59;;;;;;;4.23;0.60;;;;;;;;;;5012233;28;20435;-79
2023/08/09 03:34:25;;;;;;;3.33;1.07;;;;;;;;;;5013044;28;20425;-78
2023/08/09 03:36:51;;;;;;;2.73;0.93;;;;;;;;;;5013155;28;20465;-79
2023/08/09 03:39:17;;;;;;;5.37;1.63;;;;;;;;;;5013249;28;20620;-79
2023/08/09 03:41:43;;;;;;;3.37;1.33;;;;;;;;;;5013014;28;20478;-79
2023/08/09 03:44:09;;;;;;;4.40;0.80;;;;;;;;;;5013166;28;20409;-79
2023/08/09 03:46:36;;;;;;;4.47;1.37;;;;;;;;;;5012646;28;20410;-79
2023/08/09 03:49:02;;;;;;;8.13;1.20;;;;;;;;;;5013052;28;20398;-79
2023/08/09 03:51:28;;;;;;;3.53;1.67;;;;;;;;;;5013067;28;20423;-80
2023/08/09 03:53:54;;;;;;;4.20;1.27;;;;;;;;;;5013005;28;20424;-79
2023/08/09 03:56:20;;;;;;;4.27;1.03;;;;;;;;;;5011622;28;20491;-80
2023/08/09 03:58:46;;;;;;;7.43;1.20;;;;;;;;;;5013009;28;20559;-79
2023/08/09 04:01:12;;;;;;;3.43;0.90;;;;;;;;;;5012555;28;20402;-79
2023/08/09 04:03:38;;;;;;;3.67;0.97;;;;;;;;;;5005822;28;20425;-80
2023/08/09 04:06:05;;;;;;;6.50;1.03;;;;;;;;;;5006802;28;20194;-79
2023/08/09 04:08:31;;;;;;;4.77;0.70;;;;;;;;;;5011594;28;20434;-79
2023/08/09 04:10:59;;;;;;;3.13;0.80;;;;;;;;;;5012936;28;20417;-79
2023/08/09 04:13:25;;;;;;;2.53;0.40;;;;;;;;;;5012850;28;20768;-79
2023/08/09 04:15:51;;;;;;;6.37;1.00;;;;;;;;;;5012285;28;20485;-79
2023/08/09 04:18:17;;;;;;;4.60;0.70;;;;;;;;;;5012689;28;20444;-79
2023/08/09 04:20:45;;;;;;;6.10;1.00;;;;;;;;;;5012801;28;20508;-79
2023/08/09 04:23:10;;;;;;;4.40;0.87;;;;;;;;;;5012795;28;20420;-78
2023/08/09 04:25:36;;;;;;;7.43;1.13;;;;;;;;;;5012788;28;20840;-80
2023/08/09 04:28:02;;;;;;;2.03;0.60;;;;;;;;;;5011424;28;20184;-80
2023/08/09 04:30:28;;;;;;;4.57;0.53;;;;;;;;;;5012304;28;20414;-80
2023/08/09 04:32:55;;;;;;;2.90;0.70;;;;;;;;;;5012664;28;20414;-79
2023/08/09 04:35:21;;;;;;;2.37;0.60;;;;;;;;;;5012519;28;20740;-79
2023/08/09 04:37:47;;;;;;;3.90;0.60;;;;;;;;;;5012589;28;20428;-79
2023/08/09 04:40:13;;;;;;;7.60;1.10;;;;;;;;;;5012346;28;20898;-80
2023/08/09 04:42:40;;;;;;;3.07;0.70;;;;;;;;;;5016182;28;20420;-79
2023/08/09 04:45:07;;;;;;;3.17;0.60;;;;;;;;;;5015961;28;20771;-80
2023/08/09 04:47:33;;;;;;;2.40;0.40;;;;;;;;;;5016063;28;20425;-80
2023/08/09 04:49:59;;;;;;;6.73;1.00;;;;;;;;;;5016047;28;21111;-80
2023/08/09 04:52:25;;;;;;;4.60;1.10;;;;;;;;;;5016019;28;20449;-80
2023/08/09 04:54:51;;;;;;;5.53;0.83;;;;;;;;;;5016015;28;20624;-79
2023/08/09 04:57:17;;;;;;;2.43;0.80;;;;;;;;;;5015806;28;20260;-79
2023/08/09 04:59:43;;;;;;;3.43;0.60;;;;;;;;;;5014218;28;20183;-80
2023/08/09 05:02:09;;;;;;;3.43;0.73;;;;;;;;;;5015828;28;20425;-80
2023/08/09 05:04:35;;;;;;;2.37;0.87;;;;;;;;;;5015806;28;20414;-81
2023/08/09 05:07:02;;;;;;;5.17;0.47;;;;;;;;;;5015684;28;20426;-80
2023/08/09 05:09:29;;;;;;;2.80;0.70;;;;;;;;;;5015681;28;20425;-80
2023/08/09 05:11:54;;;;;;;4.10;0.90;;;;;;;;;;5015602;28;20418;-80
2023/08/09 05:14:20;;;;;;;2.10;0.53;;;;;;;;;;5015593;28;20417;-80
2023/08/09 05:16:46;;;;;;;3.50;0.50;;;;;;;;;;5015207;28;20488;-81
2023/08/09 05:19:12;;;;;;;2.10;0.40;;;;;;;;;;5015513;28;20185;-81
2023/08/09 05:21:38;;;;;;;2.30;0.47;;;;;;;;;;5015535;28;20181;-79
2023/08/09 05:24:04;;;;;;;2.80;0.47;;;;;;;;;;5015306;28;20202;-80
2023/08/09 05:26:30;;;;;;;3.90;0.80;;;;;;;;;;5015312;28;20180;-80
2023/08/09 05:28:56;;;;;;;3.70;0.80;;;;;;;;;;5015259;28;20416;-81
2023/08/09 05:31:22;;;;;;;6.03;0.70;;;;;;;;;;5013623;28;20489;-80
2023/08/09 05:33:47;;;;;;;2.63;0.23;;;;;;;;;;5015190;28;20177;-79
2023/08/09 05:36:14;;;;;;;6.23;0.67;;;;;;;;;;5015067;28;20214;-81
2023/08/09 05:38:40;;;;;;;3.70;0.97;;;;;;;;;;5015195;28;20173;-81
2023/08/09 05:41:05;;;;;;;2.17;0.50;;;;;;;;;;5014758;28;20538;-79
2023/08/09 05:43:34;;;;;;;3.40;0.30;;;;;;;;;;5015021;28;20406;-80
2023/08/09 05:46:00;;;;;;;2.73;0.40;;;;;;;;;;5014092;28;20179;-80
2023/08/09 05:48:26;;;;;;;2.07;0.30;;;;;;;;;;5014942;28;20745;-80
2023/08/09 05:50:52;;;;;;;5.67;0.67;;;;;;;;;;5014804;28;20174;-80
2023/08/09 05:53:19;;;;;;;2.90;0.60;;;;;;;;;;5014170;28;20411;-80
2023/08/09 05:55:44;;;;;;;4.67;0.57;;;;;;;;;;5014773;28;20219;-81
2023/08/09 05:58:10;;;;;;;5.60;0.57;;;;;;;;;;5014732;28;20890;-80
2023/08/09 06:00:37;;;;;;;2.03;0.30;;;;;;;;;;5014361;28;20176;-81
2023/08/09 06:03:03;;;;;;;3.80;0.50;;;;;;;;;;5014610;28;20532;-81
2023/08/09 06:05:29;;;;;;;5.53;0.60;;;;;;;;;;5014572;28;20518;-81
2023/08/09 06:07:55;;;;;;;4.10;0.50;;;;;;;;;;5014540;28;20505;-81
2023/08/09 06:10:25;;;;;;;3.63;0.50;;;;;;;;;;5014550;28;20178;-81
2023/08/09 06:12:52;;;;;;;2.43;0.33;;;;;;;;;;5014391;28;20419;-80
2023/08/09 06:15:18;;;;;;;2.70;0.43;;;;;;;;;;5014094;28;20421;-80
2023/08/09 06:17:44;;;;;;;3.43;0.40;;;;;;;;;;5014459;28;20893;-80
2023/08/09 06:20:13;;;;;;;4.27;0.63;;;;;;;;;;5014296;28;20475;-81
2023/08/09 06:22:39;;;;;;;2.00;0.60;;;;;;;;;;5014242;28;20178;-82
2023/08/09 06:25:05;;;;;;;4.33;0.40;;;;;;;;;;5014210;28;20796;-81
2023/08/09 06:27:31;;;;;;;3.47;0.43;;;;;;;;;;5012892;28;20421;-81
2023/08/09 06:29:57;;;;;;;3.13;0.30;;;;;;;;;;5014163;28;20533;-80
2023/08/09 06:32:23;;;;;;;2.47;0.90;;;;;;;;;;5014146;28;20253;-81
2023/08/09 06:34:49;;;;;;;4.50;1.17;;;;;;;;;;5013108;28;20437;-81
2023/08/09 06:37:15;;;;;;;3.87;0.77;;;;;;;;;;5014126;28;20220;-80
2023/08/09 06:39:41;;;;;;;6.07;1.37;;;;;;;;;;5014050;28;20414;-81
2023/08/09 06:42:08;;;;;;;4.27;0.33;;;;;;;;;;5013870;28;20598;-81
2023/08/09 06:44:34;;;;;;;2.00;0.37;;;;;;;;;;5013570;28;20508;-81
2023/08/09 06:47:00;;;;;;;3.43;0.30;;;;;;;;;;5013895;28;20456;-81
2023/08/09 06:49:26;;;;;;;2.80;0.60;;;;;;;;;;5012578;28;20494;-81
2023/08/09 06:51:52;;;;;;;4.00;0.30;;;;;;;;;;5013677;28;20174;-80
2023/08/09 06:54:18;;;;;;;3.53;0.70;;;;;;;;;;5013727;28;20506;-81
2023/08/09 06:56:44;;;;;;;5.60;0.50;;;;;;;;;;5013655;28;20322;-81
2023/08/09 06:59:10;;;;;;;2.27;0.57;;;;;;;;;;5013704;28;20457;-81
2023/08/09 07:01:36;;;;;;;2.50;0.30;;;;;;;;;;5013418;28;20309;-81
2023/08/09 07:04:02;;;;;;;3.20;0.47;;;;;;;;;;5012277;28;20923;-81
2023/08/09 07:06:28;;;;;;;3.30;0.40;;;;;;;;;;5013755;28;20179;-82
2023/08/09 07:08:54;;;;;;;2.97;0.50;;;;;;;;;;5013588;28;20166;-81
2023/08/09 07:11:20;;;;;;;2.37;0.20;;;;;;;;;;5013582;28;20183;-81
2023/08/09 07:13:46;;;;;;;4.30;1.03;;;;;;;;;;5013538;28;20410;-81
2023/08/09 07:16:12;;;;;;;3.23;1.13;;;;;;;;;;5006594;28;20470;-82
2023/08/09 07:18:38;;;;;;;3.40;0.37;;;;;;;;;;4993889;28;20776;-81
2023/08/09 07:21:04;;;;;;;2.50;0.40;;;;;;;;;;4993861;28;20168;-81
2023/08/09 07:23:31;;;;;;;2.03;0.37;;;;;;;;;;4993875;28;20257;-81
2023/08/09 07:25:57;;;;;;;4.73;0.63;;;;;;;;;;4993932;28;20425;-81
2023/08/09 07:28:23;;;;;;;2.07;0.37;;;;;;;;;;4993734;28;20443;-81
2023/08/09 07:30:51;;;;;;;2.53;0.53;;;;;;;;;;4999274;28;20231;-80
2023/08/09 07:33:17;;;;;;;5.87;0.60;;;;;;;;;;5013229;28;20174;-82
2023/08/09 07:35:43;;;;;;;4.23;0.40;;;;;;;;;;5010096;28;20462;-80
2023/08/09 07:38:09;;;;;;;3.07;0.33;;;;;;;;;;5004689;28;20427;-80
2023/08/09 07:40:35;;;;;;;4.53;0.50;;;;;;;;;;5001634;28;20986;-81
2023/08/09 07:43:01;;;;;;;5.67;0.47;;;;;;;;;;5003487;28;20183;-82
2023/08/09 07:45:28;;;;;;;4.83;0.57;;;;;;;;;;5001561;28;20255;-82
2023/08/09 07:47:54;;;;;;;2.73;0.50;;;;;;;;;;5003314;28;20825;-81
2023/08/09 07:50:20;;;;;;;2.67;1.50;;;;;;;;;;5003232;28;20974;-82
2023/08/09 07:52:47;;;;;;;4.37;0.50;;;;;;;;;;5001730;28;20406;-82
2023/08/09 07:55:13;;;;;;;2.93;0.40;;;;;;;;;;5001509;28;20413;-80
2023/08/09 07:57:39;;;;;;;4.57;0.40;;;;;;;;;;5003011;28;20432;-80
2023/08/09 08:00:12;;;;;;;7.07;0.80;;;;;;;;;;5000043;28;20911;-81
2023/08/09 08:02:39;;;;;;;3.63;0.40;;;;;;;;;;5002379;28;20420;-82
2023/08/09 08:05:06;;;;;;;3.47;0.43;;;;;;;;;;5003664;28;21028;-81
2023/08/09 08:07:32;;;;;;;3.23;0.40;;;;;;;;;;5010743;28;20555;-81
2023/08/09 08:09:58;;;;;;;4.33;0.60;;;;;;;;;;5012892;28;20876;-79
2023/08/09 08:12:26;;;;;;;3.33;0.67;;;;;;;;;;5012809;28;20917;-81
2023/08/09 08:14:54;;;;;;;2.37;0.50;;;;;;;;;;5011269;28;20424;-81
2023/08/09 08:17:21;;;;;;;2.67;0.40;;;;;;;;;;5016023;28;20467;-82
2023/08/09 08:19:49;;;;;;;5.37;0.60;;;;;;;;;;5016489;28;20909;-81
2023/08/09 08:22:15;;;;;;;4.40;0.33;;;;;;;;;;5016401;28;20421;-81
2023/08/09 08:24:41;;;;;;;4.67;0.20;;;;;;;;;;5016261;28;20497;-81
2023/08/09 08:27:07;;;;;;;5.83;0.57;;;;;;;;;;5015166;28;20424;-81
2023/08/09 08:29:33;;;;;;;2.00;0.50;;;;;;;;;;5016160;28;20425;-80
2023/08/09 08:31:59;;;;;;;3.20;0.50;;;;;;;;;;5016341;28;20171;-82
2023/08/09 08:34:31;;;;;;;2.00;0.57;;;;;;;;;;5016380;28;20181;-80
2023/08/09 08:36:57;;;;;;;5.33;0.30;;;;;;;;;;5016147;28;20210;-81
2023/08/09 08:39:23;;;;;;;3.70;0.40;;;;;;;;;;5016261;28;20543;-82
2023/08/09 08:41:50;;;;;;;2.93;0.57;;;;;;;;;;5014806;28;20505;-82
2023/08/09 08:44:16;;;;;;;3.60;1.30;;;;;;;;;;5015796;28;20460;-81
2023/08/09 08:46:42;;;;;;;3.87;0.40;;;;;;;;;;5016155;28;20786;-81
2023/08/09 08:49:10;;;;;;;3.63;0.50;;;;;;;;;;5015948;28;20421;-80
2023/08/09 08:51:37;;;;;;;6.90;0.50;;;;;;;;;;5014583;28;20925;-81
2023/08/09 08:54:06;;;;;;;3.10;0.63;;;;;;;;;;5006087;28;20429;-80
2023/08/09 08:56:32;;;;;;;2.03;0.40;;;;;;;;;;5004450;28;20536;-81
2023/08/09 08:58:59;;;;;;;2.40;0.53;;;;;;;;;;5008665;28;20455;-81
2023/08/09 09:01:26;;;;;;;2.70;0.40;;;;;;;;;;5006864;28;20417;-81
2023/08/09 09:03:51;;;;;;;4.03;0.30;;;;;;;;;;5003422;28;20489;-81
2023/08/09 09:06:17;;;;;;;2.40;0.40;;;;;;;;;;4995835;28;20414;-82
2023/08/09 09:08:44;;;;;;;3.83;0.37;;;;;;;;;;4996889;28;20176;-82
2023/08/09 09:11:21;;;;;;;1.93;0.67;;;;;;;;;;5011804;28;20226;-82
2023/08/09 09:13:48;;;;;;;1.97;0.50;;;;;;;;;;5012975;28;20425;-80
2023/08/09 09:16:15;;;;;;;3.47;0.93;;;;;;;;;;5014920;28;20465;-81
2023/08/09 09:18:42;;;;;;;4.67;0.77;;;;;;;;;;5004721;28;20492;-80
2023/08/09 09:21:11;;;;;;;5.40;0.50;;;;;;;;;;4994622;28;20989;-80
2023/08/09 09:23:37;;;;;;;2.63;0.47;;;;;;;;;;5004503;28;21049;-81
2023/08/09 09:26:09;;;;;;;5.00;0.50;;;;;;;;;;5014969;28;20414;-81
2023/08/09 09:28:41;;;;;;;3.07;0.40;;;;;;;;;;5014339;28;20769;-80
2023/08/09 09:31:07;;;;;;;4.57;0.50;;;;;;;;;;5011948;28;20422;-82
2023/08/09 09:33:33;;;;;;;2.00;0.40;;;;;;;;;;5004910;28;20413;-82
2023/08/09 09:35:59;;;;;;;3.53;0.70;;;;;;;;;;5009131;28;20544;-81
2023/08/09 09:38:25;;;;;;;0.93;0.30;;;;;;;;;;5004632;28;20416;-81
2023/08/09 09:40:51;;;;;;;2.23;0.30;;;;;;;;;;5005014;28;20553;-81
2023/08/09 09:43:17;;;;;;;4.17;0.20;;;;;;;;;;5003824;28;20405;-81
2023/08/09 09:45:44;;;;;;;4.50;0.60;;;;;;;;;;5000724;28;20492;-80
2023/08/09 09:48:17;;;;;;;3.83;0.50;;;;;;;;;;5013436;28;20192;-81
2023/08/09 09:50:43;;;;;;;6.63;0.90;;;;;;;;;;5012556;28;20941;-81
2023/08/09 09:53:13;;;;;;;4.20;1.60;;;;;;;;;;5014978;28;20412;-81
2023/08/09 09:55:40;;;;;;;6.37;0.67;;;;;;;;;;5014306;28;20461;-80
2023/08/09 09:58:06;;;;;;;2.00;0.30;;;;;;;;;;5014287;28;20859;-81
2023/08/09 10:00:32;;;;;;;3.50;0.30;;;;;;;;;;5014453;28;20398;-82
2023/08/09 10:03:00;;;;;;;5.07;0.97;;;;;;;;;;5013475;28;20569;-81
2023/08/09 10:05:29;;;;;;;3.83;0.50;;;;;;;;;;5014756;28;20414;-82
2023/08/09 10:07:56;;;;;;;4.37;0.73;;;;;;;;;;5014541;28;20410;-81
2023/08/09 10:10:22;;;;;;;4.47;0.40;;;;;;;;;;5014514;28;20501;-82
2023/08/09 10:12:51;;;;;;;2.90;0.63;;;;;;;;;;5014483;28;20410;-81
2023/08/09 10:15:19;;;;;;;4.97;0.60;;;;;;;;;;5012778;28;20425;-81
2023/08/09 10:17:45;;;;;;;3.33;0.27;;;;;;;;;;5014420;28;20426;-83
2023/08/09 10:20:12;;;;;;;5.03;0.53;;;;;;;;;;5014490;28;20428;-82
2023/08/09 10:22:39;;;;;;;3.90;0.50;;;;;;;;;;5014280;28;20937;-81
2023/08/09 10:25:05;;;;;;;4.10;0.67;;;;;;;;;;5014344;28;20418;-82
2023/08/09 10:27:49;;;;;;;2.87;0.50;;;;;;;;;;5014276;28;20533;-82
2023/08/09 10:30:17;;;;;;;2.13;0.60;;;;;;;;;;5013898;28;20413;-82
2023/08/09 10:32:49;;;;;;;6.73;0.50;;;;;;;;;;5014231;28;20945;-82
2023/08/09 10:35:23;;;;;;;4.60;0.50;;;;;;;;;;5014188;28;20406;-82
2023/08/09 10:37:49;;;;;;;3.67;0.60;;;;;;;;;;5014297;28;20434;-83
2023/08/09 10:40:18;;;;;;;5.40;0.87;;;;;;;;;;5014573;28;20465;-81
2023/08/09 10:42:47;;;;;;;3.57;0.43;;;;;;;;;;5014203;28;20569;-82
2023/08/09 10:45:13;;;;;;;7.00;0.47;;;;;;;;;;5012428;28;20410;-82
2023/08/09 10:47:40;;;;;;;4.83;0.40;;;;;;;;;;5013897;28;20733;-81
2023/08/09 10:50:13;;;;;;;3.57;0.83;;;;;;;;;;5012640;28;20433;-81
2023/08/09 10:52:48;;;;;;;3.47;0.47;;;;;;;;;;5013884;28;20412;-81
2023/08/09 10:55:21;;;;;;;2.77;0.30;;;;;;;;;;5013892;28;20456;-81
2023/08/09 10:57:48;;;;;;;2.67;0.43;;;;;;;;;;5013928;28;20522;-82
2023/08/09 11:00:14;;;;;;;4.73;0.27;;;;;;;;;;5013441;28;20434;-81
2023/08/09 11:03:01;;;;;;;3.03;0.50;;;;;;;;;;5013714;28;20410;-81
2023/08/09 11:05:27;;;;;;;3.53;0.60;;;;;;;;;;5013692;28;20416;-82
2023/08/09 11:07:55;;;;;;;1.97;0.30;;;;;;;;;;5013632;28;20413;-82
2023/08/09 11:10:34;;;;;;;3.20;0.40;;;;;;;;;;5013672;28;20430;-82
2023/08/09 11:13:04;;;;;;;1.80;0.40;;;;;;;;;;5013530;28;20978;-81
2023/08/09 11:15:31;;;;;;;4.83;0.57;;;;;;;;;;5013056;28;20410;-82
2023/08/09 11:17:57;;;;;;;3.10;0.40;;;;;;;;;;5013593;28;20783;-83
2023/08/09 11:20:22;;;;;;;1.83;0.20;;;;;;;;;;5013424;28;20418;-81
2023/08/09 11:22:55;;;;;;;3.20;0.70;;;;;;;;;;5013287;28;20170;-81
2023/08/09 11:25:21;;;;;;;6.33;0.77;;;;;;;;;;5013415;28;20198;-82
2023/08/09 11:27:50;;;;;;;2.63;0.50;;;;;;;;;;5013342;28;20418;-81
2023/08/09 11:30:16;;;;;;;2.63;0.57;;;;;;;;;;5012987;28;20773;-81
2023/08/09 11:32:42;;;;;;;2.67;0.30;;;;;;;;;;5013278;28;20426;-81
2023/08/09 11:35:09;;;;;;;3.70;0.60;;;;;;;;;;5013308;28;20171;-81
2023/08/09 11:37:35;;;;;;;3.83;0.40;;;;;;;;;;5013165;28;20802;-81
2023/08/09 11:40:01;;;;;;;3.63;0.57;;;;;;;;;;5013002;28;20409;-82
2023/08/09 11:42:27;;;;;;;3.50;0.20;;;;;;;;;;5013274;28;20628;-82
2023/08/09 11:44:53;;;;;;;3.77;1.03;;;;;;;;;;5012865;28;20167;-82
2023/08/09 11:47:26;;;;;;;3.37;0.47;;;;;;;;;;5011848;28;20179;-80
2023/08/09 11:49:51;;;;;;;5.57;1.37;;;;;;;;;;5013239;28;20678;-80
2023/08/09 11:52:17;;;;;;;2.63;0.37;;;;;;;;;;5016641;28;20483;-81
2023/08/09 11:54:43;;;;;;;3.47;0.40;;;;;;;;;;5017211;28;20174;-82
2023/08/09 11:57:09;;;;;;;6.17;0.60;;;;;;;;;;5015726;28;20254;-82
2023/08/09 11:59:41;;;;;;;2.30;1.10;;;;;;;;;;5016676;28;20468;-81
2023/08/09 12:02:07;;;;;;;3.73;0.77;;;;;;;;;;5017177;28;20178;-82
2023/08/09 12:04:33;;;;;;;3.50;0.77;;;;;;;;;;5017015;28;20496;-82
2023/08/09 12:07:02;;;;;;;4.80;0.60;;;;;;;;;;5016912;28;20920;-82
2023/08/09 12:09:42;;;;;;;3.90;0.60;;;;;;;;;;5016960;28;20210;-81
2023/08/09 12:12:08;;;;;;;3.50;0.73;;;;;;;;;;5016895;28;20894;-81
2023/08/09 12:14:35;;;;;;;1.80;0.20;;;;;;;;;;5016370;28;20417;-81
2023/08/09 12:17:01;;;;;;;1.43;0.50;;;;;;;;;;5016669;28;20218;-81
2023/08/09 12:19:27;;;;;;;3.90;0.53;;;;;;;;;;5016716;28;20409;-83
2023/08/09 12:21:53;;;;;;;1.70;0.33;;;;;;;;;;5016637;28;20910;-81
2023/08/09 12:24:19;;;;;;;2.80;0.97;;;;;;;;;;5015408;28;20453;-82
2023/08/09 12:26:45;;;;;;;4.00;1.03;;;;;;;;;;5016562;28;20511;-82
2023/08/09 12:29:11;;;;;;;2.37;0.50;;;;;;;;;;5016195;28;20750;-82
2023/08/09 12:31:38;;;;;;;2.00;0.43;;;;;;;;;;5016478;28;20175;-81
2023/08/09 12:34:04;;;;;;;3.87;0.50;;;;;;;;;;5016382;28;20875;-82
2023/08/09 12:36:30;;;;;;;1.83;0.30;;;;;;;;;;5016288;28;20543;-81
2023/08/09 12:38:56;;;;;;;3.90;0.60;;;;;;;;;;5016296;28;20421;-83
2023/08/09 12:41:22;;;;;;;3.33;0.70;;;;;;;;;;5016076;28;20465;-82
2023/08/09 12:43:48;;;;;;;2.53;0.20;;;;;;;;;;5015995;28;20480;-82
2023/08/09 12:46:14;;;;;;;2.10;0.50;;;;;;;;;;5016225;28;20496;-81
2023/08/09 12:48:42;;;;;;;4.10;0.60;;;;;;;;;;5020696;28;20175;-82
2023/08/09 12:51:08;;;;;;;3.17;0.40;;;;;;;;;;5016117;28;20573;-81
2023/08/09 12:53:34;;;;;;;1.60;0.30;;;;;;;;;;5016079;28;20508;-82
2023/08/09 12:56:00;;;;;;;1.97;0.63;;;;;;;;;;5015954;28;20268;-82
2023/08/09 12:58:26;;;;;;;1.47;0.30;;;;;;;;;;5014372;28;20436;-81
2023/08/09 13:00:53;;;;;;;2.00;0.40;;;;;;;;;;5016032;28;20409;-81
2023/08/09 13:03:19;;;;;;;2.20;0.30;;;;;;;;;;5015818;28;20748;-82
2023/08/09 13:05:45;;;;;;;2.40;0.37;;;;;;;;;;5015789;28;20416;-80
2023/08/09 13:08:11;;;;;;;2.40;0.20;;;;;;;;;;5015786;28;20167;-82
2023/08/09 13:10:37;;;;;;;2.40;1.00;;;;;;;;;;5015792;28;20182;-82
2023/08/09 13:13:03;;;;;;;1.73;0.40;;;;;;;;;;5015725;28;20417;-83
2023/08/09 13:15:29;;;;;;;2.37;0.30;;;;;;;;;;5015195;28;20175;-83
2023/08/09 13:17:55;;;;;;;3.00;0.20;;;;;;;;;;5015523;28;20883;-82
2023/08/09 13:20:21;;;;;;;1.27;0.60;;;;;;;;;;5015449;28;20254;-82
2023/08/09 13:22:47;;;;;;;3.40;0.80;;;;;;;;;;5015461;28;20171;-82
2023/08/09 13:25:13;;;;;;;1.83;0.30;;;;;;;;;;5015493;28;20202;-82
2023/08/09 13:27:39;;;;;;;2.37;0.30;;;;;;;;;;5015435;28;20178;-81
2023/08/09 13:30:08;;;;;;;3.43;0.60;;;;;;;;;;5015017;28;20504;-82
2023/08/09 13:32:35;;;;;;;2.27;0.30;;;;;;;;;;5015364;28;20414;-81
2023/08/09 13:35:01;;;;;;;1.80;0.30;;;;;;;;;;5015270;28;20414;-82
2023/08/09 13:37:27;;;;;;;3.97;0.47;;;;;;;;;;5015100;28;20473;-82
2023/08/09 13:39:53;;;;;;;2.30;0.30;;;;;;;;;;5015065;28;20199;-81
2023/08/09 13:42:19;;;;;;;2.23;0.57;;;;;;;;;;5015210;28;20456;-81
2023/08/09 13:44:46;;;;;;;3.67;0.40;;;;;;;;;;5014694;28;20496;-82
2023/08/09 13:47:12;;;;;;;3.73;0.80;;;;;;;;;;5015015;28;20428;-81
2023/08/09 13:49:38;;;;;;;2.70;0.73;;;;;;;;;;5015058;28;20406;-81
2023/08/09 13:52:04;;;;;;;5.23;1.00;;;;;;;;;;5014988;28;20773;-82
2023/08/09 13:54:30;;;;;;;3.10;0.60;;;;;;;;;;5014961;28;20418;-81
2023/08/09 13:56:56;;;;;;;4.87;1.33;;;;;;;;;;5014793;28;20546;-81
2023/08/09 13:59:22;;;;;;;3.93;0.67;;;;;;;;;;5013199;28;20185;-81
2023/08/09 14:01:48;;;;;;;2.27;0.50;;;;;;;;;;5014764;28;20416;-80
2023/08/09 14:04:14;;;;;;;2.57;0.83;;;;;;;;;;5014772;28;20407;-81
2023/08/09 14:06:40;;;;;;;2.40;0.50;;;;;;;;;;5014691;28;20414;-81
2023/08/09 14:09:08;;;;;;;3.10;0.50;;;;;;;;;;5014604;28;20971;-80
2023/08/09 14:11:34;;;;;;;1.60;0.30;;;;;;;;;;5014766;28;20507;-80
2023/08/09 14:14:00;;;;;;;1.07;0.50;;;;;;;;;;5013604;28;20817;-80
2023/08/09 14:16:26;;;;;;;2.80;0.87;;;;;;;;;;5014361;28;20530;-80
2023/08/09 14:18:51;;;;;;;3.33;0.70;;;;;;;;;;5014449;28;20413;-80
2023/08/09 14:21:17;;;;;;;3.70;0.30;;;;;;;;;;5014433;28;20423;-80
2023/08/09 14:23:44;;;;;;;2.33;0.60;;;;;;;;;;5014387;28;20171;-80
2023/08/09 14:26:10;;;;;;;2.53;0.83;;;;;;;;;;5014316;28;20420;-79
2023/08/09 14:28:36;;;;;;;2.67;0.47;;;;;;;;;;5013946;28;20401;-80
2023/08/09 14:31:03;;;;;;;4.80;0.37;;;;;;;;;;5014213;28;20432;-80
2023/08/09 14:33:29;;;;;;;1.47;0.40;;;;;;;;;;5014320;28;20479;-79
2023/08/09 14:35:55;;;;;;;1.60;0.30;;;;;;;;;;5014087;28;20984;-80
2023/08/09 14:38:20;;;;;;;3.60;0.83;;;;;;;;;;5014143;28;20468;-80
2023/08/09 14:40:47;;;;;;;2.10;0.20;;;;;;;;;;5013919;28;20464;-79